sensor_id;sensor_type;location;lat;lon;timestamp;P1;durP1;ratioP1;P2;durP2;ratioP2
12818;SDS011;6474;53.474;9.894;2022-09-02T00:02:08;0.40;;;0.40;;
12818;SDS011;6474;53.474;9.894;2022-09-02T00:04:36;0.80;;;0.80;;
12818;SDS011;6474;53.474;9.894;2022-09-02T00:07:04;0.40;;;0.40;;
12818;SDS011;6474;53.474;9.894;2022-09-02T00:09:32;0.40;;;0.40;;
12818;SDS011;6474;53.474;9.894;2022-09-02T00:12:01;0.70;;;0.70;;
12818;SDS011;6474;53.474;9.894;2022-09-02T00:14:32;0.57;;;0.57;;
12818;SDS011;6474;53.474;9.894;2022-09-02T00:17:01;0.50;;;0.50;;
12818;SDS011;6474;53.474;9.894;2022-09-02T00:19:29;0.50;;;0.50;;
12818;SDS011;6474;53.474;9.894;2022-09-02T00:21:58;0.50;;;0.50;;
12818;SDS011;6474;53.474;9.894;2022-09-02T00:24:27;0.37;;;0.37;;
12818;SDS011;6474;53.474;9.894;2022-09-02T00:27:02;0.50;;;0.50;;
12818;SDS011;6474;53.474;9.894;2022-09-02T00:29:31;0.50;;;0.50;;
12818;SDS011;6474;53.474;9.894;2022-09-02T00:31:59;0.43;;;0.43;;
12818;SDS011;6474;53.474;9.894;2022-09-02T00:34:30;0.50;;;0.50;;
12818;SDS011;6474;53.474;9.894;2022-09-02T00:36:58;0.40;;;0.40;;
12818;SDS011;6474;53.474;9.894;2022-09-02T00:39:26;0.50;;;0.50;;
12818;SDS011;6474;53.474;9.894;2022-09-02T00:41:54;0.70;;;0.70;;
12818;SDS011;6474;53.474;9.894;2022-09-02T00:44:24;0.80;;;0.80;;
12818;SDS011;6474;53.474;9.894;2022-09-02T00:46:52;0.70;;;0.70;;
12818;SDS011;6474;53.474;9.894;2022-09-02T00:49:20;0.63;;;0.63;;
12818;SDS011;6474;53.474;9.894;2022-09-02T00:51:52;0.60;;;0.60;;
12818;SDS011;6474;53.474;9.894;2022-09-02T00:54:24;0.40;;;0.40;;
12818;SDS011;6474;53.474;9.894;2022-09-02T00:56:56;0.90;;;0.90;;
12818;SDS011;6474;53.474;9.894;2022-09-02T00:59:26;0.43;;;0.43;;
12818;SDS011;6474;53.474;9.894;2022-09-02T01:02:06;0.50;;;0.50;;
12818;SDS011;6474;53.474;9.894;2022-09-02T01:04:35;1.03;;;0.60;;
12818;SDS011;6474;53.474;9.894;2022-09-02T01:07:03;0.60;;;0.60;;
12818;SDS011;6474;53.474;9.894;2022-09-02T01:09:31;0.60;;;0.60;;
12818;SDS011;6474;53.474;9.894;2022-09-02T01:12:00;0.70;;;0.70;;
12818;SDS011;6474;53.474;9.894;2022-09-02T01:14:31;0.60;;;0.60;;
12818;SDS011;6474;53.474;9.894;2022-09-02T01:17:00;0.70;;;0.70;;
12818;SDS011;6474;53.474;9.894;2022-09-02T01:19:31;1.00;;;1.00;;
12818;SDS011;6474;53.474;9.894;2022-09-02T01:22:06;0.70;;;0.70;;
12818;SDS011;6474;53.474;9.894;2022-09-02T01:24:42;0.53;;;0.53;;
12818;SDS011;6474;53.474;9.894;2022-09-02T01:27:12;0.60;;;0.60;;
12818;SDS011;6474;53.474;9.894;2022-09-02T01:29:41;0.80;;;0.80;;
12818;SDS011;6474;53.474;9.894;2022-09-02T01:32:09;0.60;;;0.60;;
12818;SDS011;6474;53.474;9.894;2022-09-02T01:34:37;0.90;;;0.90;;
12818;SDS011;6474;53.474;9.894;2022-09-02T01:37:06;0.53;;;0.53;;
12818;SDS011;6474;53.474;9.894;2022-09-02T01:39:34;0.80;;;0.80;;
12818;SDS011;6474;53.474;9.894;2022-09-02T01:42:02;0.50;;;0.50;;
12818;SDS011;6474;53.474;9.894;2022-09-02T01:44:31;0.80;;;0.80;;
12818;SDS011;6474;53.474;9.894;2022-09-02T01:46:59;0.63;;;0.63;;
12818;SDS011;6474;53.474;9.894;2022-09-02T01:49:27;0.80;;;0.80;;
12818;SDS011;6474;53.474;9.894;2022-09-02T01:52:00;0.70;;;0.70;;
12818;SDS011;6474;53.474;9.894;2022-09-02T01:54:31;0.77;;;0.77;;
12818;SDS011;6474;53.474;9.894;2022-09-02T01:56:59;0.50;;;0.50;;
12818;SDS011;6474;53.474;9.894;2022-09-02T01:59:27;0.70;;;0.70;;
12818;SDS011;6474;53.474;9.894;2022-09-02T02:01:55;0.80;;;0.80;;
12818;SDS011;6474;53.474;9.894;2022-09-02T02:04:23;0.73;;;0.70;;
12818;SDS011;6474;53.474;9.894;2022-09-02T02:06:51;0.73;;;0.73;;
12818;SDS011;6474;53.474;9.894;2022-09-02T02:09:20;0.80;;;0.80;;
12818;SDS011;6474;53.474;9.894;2022-09-02T02:11:50;1.03;;;0.90;;
12818;SDS011;6474;53.474;9.894;2022-09-02T02:14:18;1.00;;;1.00;;
12818;SDS011;6474;53.474;9.894;2022-09-02T02:16:46;0.63;;;0.63;;
12818;SDS011;6474;53.474;9.894;2022-09-02T02:19:15;0.80;;;0.80;;
12818;SDS011;6474;53.474;9.894;2022-09-02T02:21:43;0.67;;;0.67;;
12818;SDS011;6474;53.474;9.894;2022-09-02T02:24:11;0.90;;;0.90;;
12818;SDS011;6474;53.474;9.894;2022-09-02T02:26:40;0.83;;;0.53;;
12818;SDS011;6474;53.474;9.894;2022-09-02T02:29:09;0.60;;;0.60;;
12818;SDS011;6474;53.474;9.894;2022-09-02T02:31:38;0.97;;;0.97;;
12818;SDS011;6474;53.474;9.894;2022-09-02T02:34:06;0.70;;;0.70;;
12818;SDS011;6474;53.474;9.894;2022-09-02T02:36:35;0.63;;;0.63;;
12818;SDS011;6474;53.474;9.894;2022-09-02T02:39:04;0.70;;;0.70;;
12818;SDS011;6474;53.474;9.894;2022-09-02T02:41:32;0.93;;;0.70;;
12818;SDS011;6474;53.474;9.894;2022-09-02T02:44:00;0.80;;;0.80;;
12818;SDS011;6474;53.474;9.894;2022-09-02T02:46:30;0.60;;;0.60;;
12818;SDS011;6474;53.474;9.894;2022-09-02T02:48:58;0.83;;;0.83;;
12818;SDS011;6474;53.474;9.894;2022-09-02T02:51:27;0.83;;;0.50;;
12818;SDS011;6474;53.474;9.894;2022-09-02T02:53:56;0.60;;;0.60;;
12818;SDS011;6474;53.474;9.894;2022-09-02T02:56:25;0.67;;;0.67;;
12818;SDS011;6474;53.474;9.894;2022-09-02T02:58:53;1.00;;;0.90;;
12818;SDS011;6474;53.474;9.894;2022-09-02T03:01:21;0.80;;;0.80;;
12818;SDS011;6474;53.474;9.894;2022-09-02T03:03:50;0.70;;;0.70;;
12818;SDS011;6474;53.474;9.894;2022-09-02T03:06:19;0.80;;;0.80;;
12818;SDS011;6474;53.474;9.894;2022-09-02T03:08:51;0.60;;;0.60;;
12818;SDS011;6474;53.474;9.894;2022-09-02T03:11:21;0.50;;;0.50;;
12818;SDS011;6474;53.474;9.894;2022-09-02T03:13:49;0.60;;;0.60;;
12818;SDS011;6474;53.474;9.894;2022-09-02T03:16:17;0.80;;;0.80;;
12818;SDS011;6474;53.474;9.894;2022-09-02T03:18:45;0.80;;;0.80;;
12818;SDS011;6474;53.474;9.894;2022-09-02T03:21:15;0.70;;;0.70;;
12818;SDS011;6474;53.474;9.894;2022-09-02T03:23:44;1.30;;;0.77;;
12818;SDS011;6474;53.474;9.894;2022-09-02T03:26:13;0.80;;;0.80;;
12818;SDS011;6474;53.474;9.894;2022-09-02T03:28:44;2.17;;;1.30;;
12818;SDS011;6474;53.474;9.894;2022-09-02T03:31:13;0.63;;;0.63;;
12818;SDS011;6474;53.474;9.894;2022-09-02T03:33:43;0.60;;;0.60;;
12818;SDS011;6474;53.474;9.894;2022-09-02T03:36:19;0.73;;;0.73;;
12818;SDS011;6474;53.474;9.894;2022-09-02T03:38:48;0.70;;;0.70;;
12818;SDS011;6474;53.474;9.894;2022-09-02T03:41:16;0.90;;;0.90;;
12818;SDS011;6474;53.474;9.894;2022-09-02T03:43:44;0.70;;;0.70;;
12818;SDS011;6474;53.474;9.894;2022-09-02T03:46:12;0.60;;;0.60;;
12818;SDS011;6474;53.474;9.894;2022-09-02T03:48:41;0.70;;;0.70;;
12818;SDS011;6474;53.474;9.894;2022-09-02T03:51:09;0.60;;;0.60;;
12818;SDS011;6474;53.474;9.894;2022-09-02T03:53:39;0.70;;;0.70;;
12818;SDS011;6474;53.474;9.894;2022-09-02T03:56:07;0.63;;;0.63;;
12818;SDS011;6474;53.474;9.894;2022-09-02T03:58:38;0.70;;;0.70;;
12818;SDS011;6474;53.474;9.894;2022-09-02T04:01:07;0.90;;;0.90;;
12818;SDS011;6474;53.474;9.894;2022-09-02T04:03:35;0.73;;;0.73;;
12818;SDS011;6474;53.474;9.894;2022-09-02T04:06:02;0.80;;;0.80;;
12818;SDS011;6474;53.474;9.894;2022-09-02T04:08:31;1.00;;;1.00;;
12818;SDS011;6474;53.474;9.894;2022-09-02T04:11:05;1.20;;;1.10;;
12818;SDS011;6474;53.474;9.894;2022-09-02T04:13:34;1.07;;;1.07;;
12818;SDS011;6474;53.474;9.894;2022-09-02T04:16:05;0.90;;;0.90;;
12818;SDS011;6474;53.474;9.894;2022-09-02T04:18:36;0.70;;;0.70;;
12818;SDS011;6474;53.474;9.894;2022-09-02T04:21:04;0.80;;;0.80;;
12818;SDS011;6474;53.474;9.894;2022-09-02T04:23:33;0.80;;;0.80;;
12818;SDS011;6474;53.474;9.894;2022-09-02T04:26:02;1.10;;;1.07;;
12818;SDS011;6474;53.474;9.894;2022-09-02T04:28:33;1.50;;;0.87;;
12818;SDS011;6474;53.474;9.894;2022-09-02T04:31:02;0.97;;;0.97;;
12818;SDS011;6474;53.474;9.894;2022-09-02T04:33:31;0.83;;;0.83;;
12818;SDS011;6474;53.474;9.894;2022-09-02T04:36:02;1.07;;;0.90;;
12818;SDS011;6474;53.474;9.894;2022-09-02T04:38:31;0.70;;;0.70;;
12818;SDS011;6474;53.474;9.894;2022-09-02T04:40:59;3.40;;;0.90;;
12818;SDS011;6474;53.474;9.894;2022-09-02T04:43:28;1.90;;;0.80;;
12818;SDS011;6474;53.474;9.894;2022-09-02T04:45:56;0.83;;;0.70;;
12818;SDS011;6474;53.474;9.894;2022-09-02T04:48:24;1.07;;;1.07;;
12818;SDS011;6474;53.474;9.894;2022-09-02T04:50:52;1.27;;;1.10;;
12818;SDS011;6474;53.474;9.894;2022-09-02T04:53:19;0.90;;;0.90;;
12818;SDS011;6474;53.474;9.894;2022-09-02T04:55:48;0.93;;;0.93;;
12818;SDS011;6474;53.474;9.894;2022-09-02T04:58:23;0.80;;;0.80;;
12818;SDS011;6474;53.474;9.894;2022-09-02T05:00:55;0.73;;;0.73;;
12818;SDS011;6474;53.474;9.894;2022-09-02T05:03:23;0.70;;;0.70;;
12818;SDS011;6474;53.474;9.894;2022-09-02T05:05:59;1.30;;;1.23;;
12818;SDS011;6474;53.474;9.894;2022-09-02T05:08:29;0.80;;;0.80;;
12818;SDS011;6474;53.474;9.894;2022-09-02T05:10:58;0.80;;;0.80;;
12818;SDS011;6474;53.474;9.894;2022-09-02T05:13:27;0.90;;;0.90;;
12818;SDS011;6474;53.474;9.894;2022-09-02T05:15:56;0.73;;;0.73;;
12818;SDS011;6474;53.474;9.894;2022-09-02T05:18:24;1.50;;;1.13;;
12818;SDS011;6474;53.474;9.894;2022-09-02T05:20:52;1.30;;;1.20;;
12818;SDS011;6474;53.474;9.894;2022-09-02T05:23:20;0.80;;;0.80;;
12818;SDS011;6474;53.474;9.894;2022-09-02T05:25:48;1.13;;;1.13;;
12818;SDS011;6474;53.474;9.894;2022-09-02T05:28:16;1.00;;;1.00;;
12818;SDS011;6474;53.474;9.894;2022-09-02T05:30:44;1.60;;;1.20;;
12818;SDS011;6474;53.474;9.894;2022-09-02T05:33:14;0.87;;;0.87;;
12818;SDS011;6474;53.474;9.894;2022-09-02T05:35:42;1.07;;;1.07;;
12818;SDS011;6474;53.474;9.894;2022-09-02T05:38:12;0.80;;;0.80;;
12818;SDS011;6474;53.474;9.894;2022-09-02T05:40:40;0.97;;;0.97;;
12818;SDS011;6474;53.474;9.894;2022-09-02T05:43:08;0.70;;;0.70;;
12818;SDS011;6474;53.474;9.894;2022-09-02T05:45:36;0.90;;;0.90;;
12818;SDS011;6474;53.474;9.894;2022-09-02T05:48:04;0.90;;;0.90;;
12818;SDS011;6474;53.474;9.894;2022-09-02T05:50:54;1.10;;;1.10;;
12818;SDS011;6474;53.474;9.894;2022-09-02T05:53:26;0.80;;;0.80;;
12818;SDS011;6474;53.474;9.894;2022-09-02T05:56:06;1.33;;;0.90;;
12818;SDS011;6474;53.474;9.894;2022-09-02T05:58:34;0.80;;;0.80;;
12818;SDS011;6474;53.474;9.894;2022-09-02T06:01:05;1.00;;;1.00;;
12818;SDS011;6474;53.474;9.894;2022-09-02T06:03:34;0.90;;;0.90;;
12818;SDS011;6474;53.474;9.894;2022-09-02T06:06:04;1.10;;;1.10;;
12818;SDS011;6474;53.474;9.894;2022-09-02T06:08:33;0.90;;;0.90;;
12818;SDS011;6474;53.474;9.894;2022-09-02T06:11:01;1.17;;;1.17;;
12818;SDS011;6474;53.474;9.894;2022-09-02T06:13:32;0.77;;;0.77;;
12818;SDS011;6474;53.474;9.894;2022-09-02T06:16:02;1.10;;;1.10;;
12818;SDS011;6474;53.474;9.894;2022-09-02T06:18:33;0.73;;;0.73;;
12818;SDS011;6474;53.474;9.894;2022-09-02T06:21:04;0.73;;;0.73;;
12818;SDS011;6474;53.474;9.894;2022-09-02T06:23:33;0.83;;;0.83;;
12818;SDS011;6474;53.474;9.894;2022-09-02T06:26:04;0.80;;;0.80;;
12818;SDS011;6474;53.474;9.894;2022-09-02T06:28:35;0.90;;;0.90;;
12818;SDS011;6474;53.474;9.894;2022-09-02T06:31:06;1.20;;;1.10;;
12818;SDS011;6474;53.474;9.894;2022-09-02T06:33:36;0.70;;;0.70;;
12818;SDS011;6474;53.474;9.894;2022-09-02T06:36:06;0.87;;;0.60;;
12818;SDS011;6474;53.474;9.894;2022-09-02T06:38:35;0.70;;;0.70;;
12818;SDS011;6474;53.474;9.894;2022-09-02T06:41:11;0.60;;;0.60;;
12818;SDS011;6474;53.474;9.894;2022-09-02T06:43:40;0.90;;;0.90;;
12818;SDS011;6474;53.474;9.894;2022-09-02T06:46:12;0.70;;;0.70;;
12818;SDS011;6474;53.474;9.894;2022-09-02T06:48:42;0.67;;;0.67;;
12818;SDS011;6474;53.474;9.894;2022-09-02T06:51:15;0.87;;;0.80;;
12818;SDS011;6474;53.474;9.894;2022-09-02T06:53:44;0.70;;;0.70;;
12818;SDS011;6474;53.474;9.894;2022-09-02T06:56:13;0.70;;;0.70;;
12818;SDS011;6474;53.474;9.894;2022-09-02T06:58:41;0.80;;;0.80;;
12818;SDS011;6474;53.474;9.894;2022-09-02T07:01:09;0.67;;;0.67;;
12818;SDS011;6474;53.474;9.894;2022-09-02T07:03:43;0.50;;;0.50;;
12818;SDS011;6474;53.474;9.894;2022-09-02T07:06:33;0.50;;;0.50;;
12818;SDS011;6474;53.474;9.894;2022-09-02T07:09:02;0.50;;;0.50;;
12818;SDS011;6474;53.474;9.894;2022-09-02T07:11:31;0.60;;;0.60;;
12818;SDS011;6474;53.474;9.894;2022-09-02T07:13:59;0.60;;;0.60;;
12818;SDS011;6474;53.474;9.894;2022-09-02T07:16:27;0.60;;;0.60;;
12818;SDS011;6474;53.474;9.894;2022-09-02T07:18:59;0.60;;;0.60;;
12818;SDS011;6474;53.474;9.894;2022-09-02T07:21:28;0.53;;;0.53;;
12818;SDS011;6474;53.474;9.894;2022-09-02T07:23:58;0.60;;;0.60;;
12818;SDS011;6474;53.474;9.894;2022-09-02T07:26:27;0.50;;;0.50;;
12818;SDS011;6474;53.474;9.894;2022-09-02T07:28:55;0.50;;;0.50;;
12818;SDS011;6474;53.474;9.894;2022-09-02T07:31:23;0.60;;;0.60;;
12818;SDS011;6474;53.474;9.894;2022-09-02T07:33:54;0.50;;;0.50;;
12818;SDS011;6474;53.474;9.894;2022-09-02T07:36:24;0.50;;;0.50;;
12818;SDS011;6474;53.474;9.894;2022-09-02T07:38:52;0.50;;;0.50;;
12818;SDS011;6474;53.474;9.894;2022-09-02T07:41:22;0.53;;;0.53;;
12818;SDS011;6474;53.474;9.894;2022-09-02T07:43:50;0.70;;;0.70;;
12818;SDS011;6474;53.474;9.894;2022-09-02T07:46:24;1.00;;;0.60;;
12818;SDS011;6474;53.474;9.894;2022-09-02T07:48:52;0.50;;;0.50;;
12818;SDS011;6474;53.474;9.894;2022-09-02T07:51:20;0.50;;;0.50;;
12818;SDS011;6474;53.474;9.894;2022-09-02T07:53:48;0.40;;;0.40;;
12818;SDS011;6474;53.474;9.894;2022-09-02T07:56:17;0.73;;;0.73;;
12818;SDS011;6474;53.474;9.894;2022-09-02T07:58:46;0.70;;;0.60;;
12818;SDS011;6474;53.474;9.894;2022-09-02T08:01:15;0.63;;;0.63;;
12818;SDS011;6474;53.474;9.894;2022-09-02T08:03:48;0.63;;;0.63;;
12818;SDS011;6474;53.474;9.894;2022-09-02T08:06:17;0.50;;;0.50;;
12818;SDS011;6474;53.474;9.894;2022-09-02T08:09:00;0.47;;;0.47;;
12818;SDS011;6474;53.474;9.894;2022-09-02T08:11:30;0.40;;;0.40;;
12818;SDS011;6474;53.474;9.894;2022-09-02T08:14:00;0.50;;;0.50;;
12818;SDS011;6474;53.474;9.894;2022-09-02T08:16:28;0.60;;;0.60;;
12818;SDS011;6474;53.474;9.894;2022-09-02T08:18:59;0.40;;;0.40;;
12818;SDS011;6474;53.474;9.894;2022-09-02T08:21:28;0.40;;;0.40;;
12818;SDS011;6474;53.474;9.894;2022-09-02T08:23:56;0.70;;;0.70;;
12818;SDS011;6474;53.474;9.894;2022-09-02T08:26:23;0.43;;;0.43;;
12818;SDS011;6474;53.474;9.894;2022-09-02T08:28:56;0.37;;;0.37;;
12818;SDS011;6474;53.474;9.894;2022-09-02T08:31:25;0.53;;;0.53;;
12818;SDS011;6474;53.474;9.894;2022-09-02T08:33:53;0.20;;;0.20;;
12818;SDS011;6474;53.474;9.894;2022-09-02T08:36:24;0.60;;;0.60;;
12818;SDS011;6474;53.474;9.894;2022-09-02T08:38:53;0.30;;;0.30;;
12818;SDS011;6474;53.474;9.894;2022-09-02T08:41:22;0.47;;;0.47;;
12818;SDS011;6474;53.474;9.894;2022-09-02T08:43:52;0.50;;;0.50;;
12818;SDS011;6474;53.474;9.894;2022-09-02T08:46:23;0.50;;;0.50;;
12818;SDS011;6474;53.474;9.894;2022-09-02T08:48:57;0.57;;;0.57;;
12818;SDS011;6474;53.474;9.894;2022-09-02T08:51:30;0.53;;;0.53;;
12818;SDS011;6474;53.474;9.894;2022-09-02T08:54:03;0.60;;;0.60;;
12818;SDS011;6474;53.474;9.894;2022-09-02T08:56:34;0.50;;;0.50;;
12818;SDS011;6474;53.474;9.894;2022-09-02T08:59:02;0.57;;;0.57;;
12818;SDS011;6474;53.474;9.894;2022-09-02T09:01:37;0.50;;;0.50;;
12818;SDS011;6474;53.474;9.894;2022-09-02T09:04:20;0.50;;;0.50;;
12818;SDS011;6474;53.474;9.894;2022-09-02T09:07:06;0.40;;;0.40;;
12818;SDS011;6474;53.474;9.894;2022-09-02T09:09:55;0.50;;;0.50;;
12818;SDS011;6474;53.474;9.894;2022-09-02T09:12:32;0.60;;;0.60;;
12818;SDS011;6474;53.474;9.894;2022-09-02T09:15:29;0.50;;;0.50;;
12818;SDS011;6474;53.474;9.894;2022-09-02T09:18:07;0.40;;;0.40;;
12818;SDS011;6474;53.474;9.894;2022-09-02T09:20:40;0.60;;;0.60;;
12818;SDS011;6474;53.474;9.894;2022-09-02T09:23:14;0.50;;;0.50;;
12818;SDS011;6474;53.474;9.894;2022-09-02T09:25:49;0.32;;;0.32;;
12818;SDS011;6474;53.474;9.894;2022-09-02T09:28:20;0.30;;;0.30;;
12818;SDS011;6474;53.474;9.894;2022-09-02T09:30:49;0.50;;;0.50;;
12818;SDS011;6474;53.474;9.894;2022-09-02T09:33:20;0.40;;;0.40;;
12818;SDS011;6474;53.474;9.894;2022-09-02T09:35:49;0.55;;;0.55;;
12818;SDS011;6474;53.474;9.894;2022-09-02T09:41:14;0.38;;;0.38;;
12818;SDS011;6474;53.474;9.894;2022-09-02T09:43:45;0.40;;;0.40;;
12818;SDS011;6474;53.474;9.894;2022-09-02T09:46:21;0.50;;;0.50;;
12818;SDS011;6474;53.474;9.894;2022-09-02T09:48:54;0.55;;;0.55;;
12818;SDS011;6474;53.474;9.894;2022-09-02T09:51:22;0.43;;;0.43;;
12818;SDS011;6474;53.474;9.894;2022-09-02T09:53:51;0.50;;;0.50;;
12818;SDS011;6474;53.474;9.894;2022-09-02T09:56:29;0.55;;;0.55;;
12818;SDS011;6474;53.474;9.894;2022-09-02T09:59:03;0.30;;;0.30;;
12818;SDS011;6474;53.474;9.894;2022-09-02T10:01:34;0.35;;;0.35;;
12818;SDS011;6474;53.474;9.894;2022-09-02T10:04:06;0.57;;;0.57;;
12818;SDS011;6474;53.474;9.894;2022-09-02T10:06:55;0.50;;;0.50;;
12818;SDS011;6474;53.474;9.894;2022-09-02T10:09:30;0.40;;;0.40;;
12818;SDS011;6474;53.474;9.894;2022-09-02T10:12:06;0.50;;;0.50;;
12818;SDS011;6474;53.474;9.894;2022-09-02T10:14:36;0.40;;;0.40;;
12818;SDS011;6474;53.474;9.894;2022-09-02T10:17:14;0.50;;;0.50;;
12818;SDS011;6474;53.474;9.894;2022-09-02T10:19:55;0.40;;;0.40;;
12818;SDS011;6474;53.474;9.894;2022-09-02T10:22:33;0.30;;;0.30;;
12818;SDS011;6474;53.474;9.894;2022-09-02T10:25:30;0.50;;;0.50;;
12818;SDS011;6474;53.474;9.894;2022-09-02T10:28:09;0.47;;;0.47;;
12818;SDS011;6474;53.474;9.894;2022-09-02T10:30:48;0.52;;;0.52;;
12818;SDS011;6474;53.474;9.894;2022-09-02T10:33:29;0.60;;;0.60;;
12818;SDS011;6474;53.474;9.894;2022-09-02T10:36:10;0.30;;;0.30;;
12818;SDS011;6474;53.474;9.894;2022-09-02T10:38:48;0.40;;;0.40;;
12818;SDS011;6474;53.474;9.894;2022-09-02T10:41:20;0.50;;;0.50;;
12818;SDS011;6474;53.474;9.894;2022-09-02T10:44:07;0.98;;;0.43;;
12818;SDS011;6474;53.474;9.894;2022-09-02T10:46:50;0.30;;;0.30;;
12818;SDS011;6474;53.474;9.894;2022-09-02T10:49:30;0.40;;;0.40;;
12818;SDS011;6474;53.474;9.894;2022-09-02T10:52:31;0.43;;;0.43;;
12818;SDS011;6474;53.474;9.894;2022-09-02T10:55:24;0.38;;;0.38;;
12818;SDS011;6474;53.474;9.894;2022-09-02T10:58:03;0.30;;;0.30;;
12818;SDS011;6474;53.474;9.894;2022-09-02T11:00:39;0.50;;;0.50;;
12818;SDS011;6474;53.474;9.894;2022-09-02T11:03:11;0.30;;;0.30;;
12818;SDS011;6474;53.474;9.894;2022-09-02T11:05:44;0.40;;;0.40;;
12818;SDS011;6474;53.474;9.894;2022-09-02T11:08:17;0.40;;;0.40;;
12818;SDS011;6474;53.474;9.894;2022-09-02T11:10:58;0.52;;;0.40;;
12818;SDS011;6474;53.474;9.894;2022-09-02T11:13:33;0.50;;;0.50;;
12818;SDS011;6474;53.474;9.894;2022-09-02T11:16:06;0.55;;;0.55;;
12818;SDS011;6474;53.474;9.894;2022-09-02T11:18:42;0.30;;;0.30;;
12818;SDS011;6474;53.474;9.894;2022-09-02T11:21:21;0.55;;;0.55;;
12818;SDS011;6474;53.474;9.894;2022-09-02T11:24:00;0.32;;;0.32;;
12818;SDS011;6474;53.474;9.894;2022-09-02T11:26:32;0.55;;;0.55;;
12818;SDS011;6474;53.474;9.894;2022-09-02T11:29:07;0.47;;;0.47;;
12818;SDS011;6474;53.474;9.894;2022-09-02T11:31:40;0.60;;;0.60;;
12818;SDS011;6474;53.474;9.894;2022-09-02T11:34:15;0.35;;;0.35;;
12818;SDS011;6474;53.474;9.894;2022-09-02T11:36:51;0.30;;;0.30;;
12818;SDS011;6474;53.474;9.894;2022-09-02T11:39:23;0.40;;;0.40;;
12818;SDS011;6474;53.474;9.894;2022-09-02T11:42:21;0.38;;;0.38;;
12818;SDS011;6474;53.474;9.894;2022-09-02T11:48:07;0.40;;;0.40;;
12818;SDS011;6474;53.474;9.894;2022-09-02T11:50:59;0.40;;;0.40;;
12818;SDS011;6474;53.474;9.894;2022-09-02T11:53:56;0.40;;;0.40;;
12818;SDS011;6474;53.474;9.894;2022-09-02T11:56:34;0.38;;;0.38;;
12818;SDS011;6474;53.474;9.894;2022-09-02T11:59:06;0.45;;;0.45;;
12818;SDS011;6474;53.474;9.894;2022-09-02T12:01:34;0.45;;;0.45;;
12818;SDS011;6474;53.474;9.894;2022-09-02T12:04:17;0.50;;;0.50;;
12818;SDS011;6474;53.474;9.894;2022-09-02T12:07:22;0.30;;;0.30;;
12818;SDS011;6474;53.474;9.894;2022-09-02T12:09:59;0.90;;;0.57;;
12818;SDS011;6474;53.474;9.894;2022-09-02T12:15:35;0.60;;;0.60;;
12818;SDS011;6474;53.474;9.894;2022-09-02T12:18:13;0.50;;;0.50;;
12818;SDS011;6474;53.474;9.894;2022-09-02T12:27:19;0.40;;;0.40;;
12818;SDS011;6474;53.474;9.894;2022-09-02T12:29:59;0.60;;;0.60;;
12818;SDS011;6474;53.474;9.894;2022-09-02T12:38:32;1.00;;;0.60;;
12818;SDS011;6474;53.474;9.894;2022-09-02T12:41:17;0.50;;;0.50;;
12818;SDS011;6474;53.474;9.894;2022-09-02T12:43:54;0.50;;;0.50;;
12818;SDS011;6474;53.474;9.894;2022-09-02T12:46:43;0.43;;;0.43;;
12818;SDS011;6474;53.474;9.894;2022-09-02T12:49:36;0.40;;;0.40;;
12818;SDS011;6474;53.474;9.894;2022-09-02T12:52:09;0.47;;;0.47;;
12818;SDS011;6474;53.474;9.894;2022-09-02T12:54:42;0.40;;;0.40;;
12818;SDS011;6474;53.474;9.894;2022-09-02T12:57:14;2.20;;;0.80;;
12818;SDS011;6474;53.474;9.894;2022-09-02T12:59:44;0.50;;;0.50;;
12818;SDS011;6474;53.474;9.894;2022-09-02T13:02:18;0.60;;;0.60;;
12818;SDS011;6474;53.474;9.894;2022-09-02T13:05:16;0.50;;;0.50;;
12818;SDS011;6474;53.474;9.894;2022-09-02T13:07:55;0.57;;;0.57;;
12818;SDS011;6474;53.474;9.894;2022-09-02T13:13:56;0.57;;;0.57;;
12818;SDS011;6474;53.474;9.894;2022-09-02T13:16:49;0.55;;;0.55;;
12818;SDS011;6474;53.474;9.894;2022-09-02T13:19:59;0.43;;;0.43;;
12818;SDS011;6474;53.474;9.894;2022-09-02T13:23:03;0.40;;;0.40;;
12818;SDS011;6474;53.474;9.894;2022-09-02T13:32:23;0.45;;;0.45;;
12818;SDS011;6474;53.474;9.894;2022-09-02T13:34:54;0.40;;;0.40;;
12818;SDS011;6474;53.474;9.894;2022-09-02T13:37:31;0.40;;;0.40;;
12818;SDS011;6474;53.474;9.894;2022-09-02T13:40:04;0.50;;;0.50;;
12818;SDS011;6474;53.474;9.894;2022-09-02T13:42:33;0.50;;;0.50;;
12818;SDS011;6474;53.474;9.894;2022-09-02T13:45:09;0.60;;;0.60;;
12818;SDS011;6474;53.474;9.894;2022-09-02T13:47:42;0.35;;;0.35;;
12818;SDS011;6474;53.474;9.894;2022-09-02T13:50:12;2.45;;;0.60;;
12818;SDS011;6474;53.474;9.894;2022-09-02T13:52:45;0.30;;;0.30;;
12818;SDS011;6474;53.474;9.894;2022-09-02T13:55:36;0.50;;;0.50;;
12818;SDS011;6474;53.474;9.894;2022-09-02T13:58:19;0.50;;;0.50;;
12818;SDS011;6474;53.474;9.894;2022-09-02T14:01:15;0.52;;;0.52;;
12818;SDS011;6474;53.474;9.894;2022-09-02T14:03:45;0.40;;;0.40;;
12818;SDS011;6474;53.474;9.894;2022-09-02T14:06:17;0.30;;;0.30;;
12818;SDS011;6474;53.474;9.894;2022-09-02T14:08:50;0.60;;;0.60;;
12818;SDS011;6474;53.474;9.894;2022-09-02T14:11:21;0.43;;;0.40;;
12818;SDS011;6474;53.474;9.894;2022-09-02T14:13:50;0.50;;;0.50;;
12818;SDS011;6474;53.474;9.894;2022-09-02T14:16:29;0.60;;;0.60;;
12818;SDS011;6474;53.474;9.894;2022-09-02T14:19:02;0.40;;;0.40;;
12818;SDS011;6474;53.474;9.894;2022-09-02T14:21:30;0.40;;;0.40;;
12818;SDS011;6474;53.474;9.894;2022-09-02T14:24:00;0.50;;;0.50;;
12818;SDS011;6474;53.474;9.894;2022-09-02T14:26:31;0.32;;;0.32;;
12818;SDS011;6474;53.474;9.894;2022-09-02T14:29:03;0.55;;;0.55;;
12818;SDS011;6474;53.474;9.894;2022-09-02T14:31:32;0.47;;;0.47;;
12818;SDS011;6474;53.474;9.894;2022-09-02T14:34:02;0.50;;;0.50;;
12818;SDS011;6474;53.474;9.894;2022-09-02T14:36:51;0.65;;;0.65;;
12818;SDS011;6474;53.474;9.894;2022-09-02T14:39:20;0.43;;;0.43;;
12818;SDS011;6474;53.474;9.894;2022-09-02T14:41:49;0.60;;;0.60;;
12818;SDS011;6474;53.474;9.894;2022-09-02T14:44:20;0.50;;;0.50;;
12818;SDS011;6474;53.474;9.894;2022-09-02T14:46:58;0.52;;;0.52;;
12818;SDS011;6474;53.474;9.894;2022-09-02T14:49:28;0.60;;;0.60;;
12818;SDS011;6474;53.474;9.894;2022-09-02T14:51:58;0.45;;;0.45;;
12818;SDS011;6474;53.474;9.894;2022-09-02T14:54:37;0.40;;;0.40;;
12818;SDS011;6474;53.474;9.894;2022-09-02T14:57:18;0.50;;;0.50;;
12818;SDS011;6474;53.474;9.894;2022-09-02T14:59:48;0.60;;;0.60;;
12818;SDS011;6474;53.474;9.894;2022-09-02T15:02:21;0.60;;;0.60;;
12818;SDS011;6474;53.474;9.894;2022-09-02T15:04:50;0.60;;;0.60;;
12818;SDS011;6474;53.474;9.894;2022-09-02T15:07:18;0.60;;;0.60;;
12818;SDS011;6474;53.474;9.894;2022-09-02T15:09:47;0.40;;;0.40;;
12818;SDS011;6474;53.474;9.894;2022-09-02T15:12:16;0.60;;;0.60;;
12818;SDS011;6474;53.474;9.894;2022-09-02T15:14:45;0.40;;;0.40;;
12818;SDS011;6474;53.474;9.894;2022-09-02T15:17:14;1.23;;;0.65;;
12818;SDS011;6474;53.474;9.894;2022-09-02T15:19:42;0.60;;;0.60;;
12818;SDS011;6474;53.474;9.894;2022-09-02T15:22:10;0.65;;;0.45;;
12818;SDS011;6474;53.474;9.894;2022-09-02T15:24:38;0.45;;;0.45;;
12818;SDS011;6474;53.474;9.894;2022-09-02T15:27:08;0.43;;;0.43;;
12818;SDS011;6474;53.474;9.894;2022-09-02T15:29:36;0.50;;;0.50;;
12818;SDS011;6474;53.474;9.894;2022-09-02T15:32:04;0.60;;;0.60;;
12818;SDS011;6474;53.474;9.894;2022-09-02T15:34:33;0.60;;;0.60;;
12818;SDS011;6474;53.474;9.894;2022-09-02T15:37:01;0.40;;;0.40;;
12818;SDS011;6474;53.474;9.894;2022-09-02T15:39:29;0.70;;;0.70;;
12818;SDS011;6474;53.474;9.894;2022-09-02T15:41:57;0.70;;;0.70;;
12818;SDS011;6474;53.474;9.894;2022-09-02T15:44:26;0.52;;;0.52;;
12818;SDS011;6474;53.474;9.894;2022-09-02T15:46:56;0.47;;;0.47;;
12818;SDS011;6474;53.474;9.894;2022-09-02T15:49:24;0.60;;;0.60;;
12818;SDS011;6474;53.474;9.894;2022-09-02T15:51:52;0.80;;;0.80;;
12818;SDS011;6474;53.474;9.894;2022-09-02T15:54:21;2.53;;;0.65;;
12818;SDS011;6474;53.474;9.894;2022-09-02T15:56:52;0.70;;;0.70;;
12818;SDS011;6474;53.474;9.894;2022-09-02T16:02:23;0.40;;;0.40;;
12818;SDS011;6474;53.474;9.894;2022-09-02T16:04:51;0.60;;;0.60;;
12818;SDS011;6474;53.474;9.894;2022-09-02T16:07:19;0.55;;;0.55;;